Terminal Aerodrome Forecast
Issued by NWS Topeka, KS

Home | Current Version | Previous Version | Text Only | Print | Product List | Glossary Off
Versions: 1 2 3 4 5 6 7 8 9 10 11 12 13 14 15 16 17 18 19 20 21 22

000
FTUS43 KTOP 210547
TAFTOP
TAF
KTOP 210547Z 2106/2206 11002KT 1SM BR SCT250
      TEMPO 2106/2109 1/4SM FG VV003
     FM210900 12003KT 4SM BR BKN008
     FM211100 13003KT 1SM BR BKN005
     FM211600 15006KT P6SM BKN015
     FM211900 17007KT P6SM SCT040
     FM212300 16005KT P6SM VCSH BKN050=

USA.gov is the U.S. government's official web portal to all federal, state and local government web resources and services.